createdAt,value
2022-10-23T00:00:34.897Z,11.23
2022-10-23T00:03:36.978Z,10.70
2022-10-23T00:06:39.735Z,10.98
2022-10-23T00:09:41.699Z,11.85
2022-10-23T00:12:44.685Z,11.67
2022-10-23T00:15:46.888Z,12.33
2022-10-23T00:18:48.934Z,11.77
2022-10-23T00:21:51.441Z,11.45
2022-10-23T00:24:53.611Z,11.35
2022-10-23T00:27:55.584Z,11.30
2022-10-23T00:30:57.676Z,10.50
2022-10-23T00:33:59.800Z,9.45
2022-10-23T00:37:01.853Z,9.43
2022-10-23T00:40:05.025Z,9.13
2022-10-23T00:43:14.046Z,9.83
2022-10-23T00:46:15.963Z,9.17
2022-10-23T00:49:17.956Z,8.52
2022-10-23T00:52:19.946Z,9.65
2022-10-23T00:55:24.439Z,7.95
2022-10-23T00:58:26.583Z,15.63
2022-10-23T01:01:28.674Z,10.70
2022-10-23T01:04:32.121Z,8.40
2022-10-23T01:07:47.086Z,7.93
2022-10-23T01:11:03.562Z,8.10
2022-10-23T01:14:08.165Z,8.03
2022-10-23T01:17:18.244Z,8.50
2022-10-23T01:20:23.225Z,8.73
2022-10-23T01:23:55.584Z,8.48
2022-10-23T01:27:18.523Z,8.57
2022-10-23T01:30:20.729Z,7.93
2022-10-23T01:33:29.329Z,6.95
2022-10-23T01:36:34.404Z,6.78
2022-10-23T01:39:40.833Z,6.65
2022-10-23T01:42:50.595Z,5.82
2022-10-23T01:46:01.811Z,6.00
2022-10-23T01:49:08.064Z,5.97
2022-10-23T01:52:14.103Z,6.07
2022-10-23T01:55:17.571Z,6.28
2022-10-23T01:58:22.133Z,7.75
2022-10-23T02:01:27.984Z,8.47
2022-10-23T02:04:35.930Z,6.00
2022-10-23T02:07:38.082Z,8.55
2022-10-23T02:10:52.054Z,10.52
2022-10-23T02:14:07.556Z,11.07
2022-10-23T02:17:17.037Z,7.77
2022-10-23T02:20:35.922Z,7.07
2022-10-23T02:23:55.324Z,7.47
2022-10-23T02:27:02.736Z,4.55
2022-10-23T02:30:10.273Z,4.25
2022-10-23T02:33:13.667Z,3.83
2022-10-23T02:36:19.666Z,3.58
2022-10-23T02:39:24.672Z,4.43
2022-10-23T02:42:35.315Z,4.70
2022-10-23T02:46:03.723Z,4.15
2022-10-23T02:49:37.873Z,4.73
2022-10-23T02:53:10.525Z,4.60
2022-10-23T02:56:24.296Z,4.22
2022-10-23T02:59:35.721Z,4.37
2022-10-23T03:02:42.305Z,5.43
2022-10-23T03:05:47.670Z,4.87
2022-10-23T03:08:54.111Z,4.90
2022-10-23T03:11:56.044Z,4.87
2022-10-23T03:14:57.989Z,4.53
2022-10-23T03:18:00.045Z,4.87
2022-10-23T03:21:01.993Z,5.00
2022-10-23T03:24:04.177Z,5.00
2022-10-23T03:27:06.097Z,4.32
2022-10-23T03:30:08.728Z,4.35
2022-10-23T03:33:10.836Z,3.50
2022-10-23T03:36:12.977Z,4.27
2022-10-23T03:39:14.996Z,3.90
2022-10-23T03:42:17.121Z,4.20
2022-10-23T03:45:19.257Z,4.10
2022-10-23T03:48:21.353Z,4.03
2022-10-23T03:51:23.372Z,4.63
2022-10-23T03:54:26.906Z,4.90
2022-10-23T03:57:28.968Z,4.53
2022-10-23T04:00:31.055Z,4.00
2022-10-23T04:03:33.062Z,4.80
2022-10-23T04:06:35.413Z,4.23
2022-10-23T04:09:37.442Z,4.82
2022-10-23T04:12:39.713Z,4.70
2022-10-23T04:15:48.406Z,4.97
2022-10-23T04:18:50.602Z,4.68
2022-10-23T04:21:52.601Z,4.37
2022-10-23T04:24:54.565Z,4.53
2022-10-23T04:27:56.559Z,4.60
2022-10-23T04:30:58.578Z,4.05
2022-10-23T04:34:00.653Z,4.28
2022-10-23T04:37:02.710Z,5.07
2022-10-23T04:40:04.968Z,5.10
2022-10-23T04:43:13.352Z,4.85
2022-10-23T04:46:15.373Z,4.35
2022-10-23T04:49:17.387Z,4.85
2022-10-23T04:52:19.383Z,4.97
2022-10-23T04:55:21.481Z,5.37
2022-10-23T04:58:24.399Z,4.80
2022-10-23T05:01:26.531Z,4.90
2022-10-23T05:04:28.529Z,4.85
2022-10-23T05:07:30.528Z,4.70
2022-10-23T05:10:32.621Z,5.05
2022-10-23T05:13:35.522Z,4.55
2022-10-23T05:16:43.212Z,5.37
2022-10-23T05:19:53.106Z,5.25
2022-10-23T05:22:57.156Z,5.33
2022-10-23T05:25:59.888Z,4.68
2022-10-23T05:29:01.906Z,5.12
2022-10-23T05:32:06.877Z,4.75
2022-10-23T05:35:12.913Z,5.35
2022-10-23T05:38:15.669Z,4.40
2022-10-23T05:41:17.823Z,5.20
2022-10-23T05:44:19.914Z,4.93
2022-10-23T05:47:21.843Z,4.57
2022-10-23T05:50:23.992Z,5.50
2022-10-23T05:53:25.921Z,5.17
2022-10-23T05:56:27.948Z,4.55
2022-10-23T05:59:29.997Z,4.43
2022-10-23T06:02:33.042Z,4.37
2022-10-23T06:05:35.015Z,4.60
2022-10-23T06:08:37.157Z,4.27
2022-10-23T06:11:39.139Z,4.87
2022-10-23T06:14:41.097Z,4.75
2022-10-23T06:17:43.150Z,5.15
2022-10-23T06:20:45.232Z,5.43
2022-10-23T06:23:48.093Z,4.33
2022-10-23T06:26:50.058Z,5.05
2022-10-23T06:29:52.266Z,15.52
2022-10-23T06:32:54.157Z,10.35
2022-10-23T06:35:56.761Z,11.10
2022-10-23T06:42:01.686Z,5.90
2022-10-23T06:45:06.375Z,5.45
2022-10-23T06:48:09.149Z,4.30
2022-10-23T06:51:13.760Z,4.80
2022-10-23T06:54:15.725Z,4.07
2022-10-23T06:57:17.706Z,4.70
2022-10-23T07:00:21.644Z,4.05
2022-10-23T07:03:23.656Z,4.10
2022-10-23T07:06:25.568Z,4.43
2022-10-23T07:09:27.617Z,4.00
2022-10-23T07:12:29.715Z,4.50
2022-10-23T07:15:31.678Z,4.85
2022-10-23T07:21:40.495Z,4.35
2022-10-23T07:24:42.545Z,3.83
2022-10-23T07:27:44.771Z,5.35
2022-10-23T07:30:56.780Z,4.45
2022-10-23T07:33:59.026Z,4.65
2022-10-23T07:37:01.040Z,4.70
2022-10-23T07:40:07.433Z,4.60
2022-10-23T07:43:09.352Z,5.10
2022-10-23T07:46:11.333Z,4.43
2022-10-23T07:49:13.375Z,4.35
2022-10-23T07:52:15.330Z,5.20
2022-10-23T07:55:17.973Z,5.40
2022-10-23T07:58:20.245Z,6.78
2022-10-23T08:01:32.715Z,4.97
2022-10-23T08:04:34.901Z,5.97
2022-10-23T08:07:37.018Z,6.00
2022-10-23T08:10:41.626Z,3.70
2022-10-23T08:13:44.409Z,4.03
2022-10-23T08:16:46.765Z,4.07
2022-10-23T08:19:48.978Z,3.78
2022-10-23T08:22:51.677Z,2.78
2022-10-23T08:26:01.551Z,2.33
2022-10-23T08:29:03.536Z,2.00
2022-10-23T08:32:05.710Z,2.50
2022-10-23T08:35:07.961Z,2.72
2022-10-23T08:38:10.711Z,2.47
2022-10-23T08:41:25.153Z,2.50
2022-10-23T08:44:35.544Z,2.00
2022-10-23T08:47:51.084Z,1.90
2022-10-23T08:50:59.466Z,1.90
2022-10-23T08:54:22.989Z,1.80
2022-10-23T08:57:33.300Z,1.63
2022-10-23T09:00:35.691Z,1.50
2022-10-23T09:03:37.724Z,1.00
2022-10-23T09:06:41.980Z,1.58
2022-10-23T09:10:17.698Z,1.55
2022-10-23T09:13:45.444Z,1.47
2022-10-23T09:17:19.015Z,1.30
2022-10-23T09:20:24.210Z,1.95
2022-10-23T09:23:26.159Z,1.77
2022-10-23T09:26:28.121Z,2.50
2022-10-23T09:29:33.226Z,2.10
2022-10-23T09:32:37.751Z,3.80
2022-10-23T09:35:40.129Z,2.50
2022-10-23T09:38:45.335Z,2.65
2022-10-23T09:41:47.280Z,1.95
2022-10-23T09:44:52.270Z,2.07
2022-10-23T09:48:12.241Z,2.20
2022-10-23T09:51:21.869Z,2.75
2022-10-23T09:54:24.292Z,2.87
2022-10-23T09:57:32.442Z,2.67
2022-10-23T10:00:34.408Z,2.67
2022-10-23T10:03:37.634Z,2.83
2022-10-23T10:09:48.488Z,2.85
2022-10-23T10:12:58.404Z,3.00
2022-10-23T10:16:19.306Z,3.67
2022-10-23T10:20:02.369Z,3.58
2022-10-23T10:23:22.346Z,3.78
2022-10-23T10:27:11.608Z,3.67
2022-10-23T10:30:19.115Z,5.20
2022-10-23T10:34:21.986Z,4.17
2022-10-23T10:38:01.252Z,4.80
2022-10-23T10:41:09.239Z,4.93
2022-10-23T10:44:29.811Z,5.45
2022-10-23T10:48:09.733Z,5.03
2022-10-23T10:51:34.557Z,4.27
2022-10-23T10:54:58.129Z,5.00
2022-10-23T10:58:06.152Z,3.55
2022-10-23T11:01:27.610Z,5.22
2022-10-23T11:04:40.565Z,5.35
2022-10-23T11:08:01.568Z,5.20
2022-10-23T11:11:37.697Z,4.90
2022-10-23T11:14:42.853Z,5.95
2022-10-23T11:17:50.335Z,5.82
2022-10-23T11:21:29.820Z,5.40
2022-10-23T11:24:40.661Z,5.23
2022-10-23T11:28:12.034Z,5.85
2022-10-23T11:31:26.016Z,5.62
2022-10-23T11:34:43.470Z,4.85
2022-10-23T11:37:45.619Z,5.55
2022-10-23T11:44:05.740Z,5.78
2022-10-23T11:47:40.002Z,5.40
2022-10-23T11:50:45.626Z,5.30
2022-10-23T11:53:48.754Z,5.30
2022-10-23T11:57:14.234Z,5.77
2022-10-23T12:00:23.347Z,5.40
2022-10-23T12:03:51.837Z,4.72
2022-10-23T12:07:01.437Z,4.37
2022-10-23T12:10:07.627Z,4.80
2022-10-23T12:13:43.577Z,4.47
2022-10-23T12:16:46.043Z,5.00
2022-10-23T12:20:10.003Z,4.68
2022-10-23T12:23:30.820Z,3.62
2022-10-23T12:26:51.537Z,3.90
2022-10-23T12:30:23.094Z,4.40
2022-10-23T12:33:28.855Z,4.00
2022-10-23T12:36:51.277Z,4.07
2022-10-23T12:39:55.574Z,3.72
2022-10-23T12:43:00.119Z,4.15
2022-10-23T12:46:27.995Z,3.87
2022-10-23T12:49:33.774Z,4.00
2022-10-23T12:52:39.760Z,4.28
2022-10-23T12:55:50.275Z,4.43
2022-10-23T12:58:56.676Z,4.43
2022-10-23T13:01:59.160Z,3.70
2022-10-23T13:05:05.573Z,4.62
2022-10-23T13:08:11.074Z,4.15
2022-10-23T13:11:19.815Z,4.50
2022-10-23T13:14:34.746Z,4.95
2022-10-23T13:17:44.873Z,3.63
2022-10-23T13:20:51.624Z,4.47
2022-10-23T13:23:55.072Z,4.70
2022-10-23T13:26:58.769Z,4.82
2022-10-23T13:30:03.996Z,4.32
2022-10-23T13:33:26.230Z,4.70
2022-10-23T13:36:31.928Z,4.97
2022-10-23T13:39:34.972Z,4.97
2022-10-23T13:42:37.579Z,4.53
2022-10-23T13:45:41.162Z,4.70
2022-10-23T13:48:44.562Z,5.20
2022-10-23T13:51:53.826Z,4.75
2022-10-23T13:54:56.332Z,4.80
2022-10-23T13:57:58.780Z,4.55
2022-10-23T14:01:01.880Z,4.70
2022-10-23T14:04:06.984Z,4.60
2022-10-23T14:07:09.602Z,4.62
2022-10-23T14:10:12.837Z,5.07
2022-10-23T14:13:16.599Z,4.95
2022-10-23T14:16:23.838Z,5.10
2022-10-23T14:19:26.810Z,4.77
2022-10-23T14:22:29.561Z,5.05
2022-10-23T14:25:33.198Z,5.30
2022-10-23T14:28:36.878Z,4.80
2022-10-23T14:31:40.948Z,5.00
2022-10-23T14:34:46.176Z,4.97
2022-10-23T14:37:48.782Z,4.93
2022-10-23T14:40:52.547Z,5.47
2022-10-23T14:43:55.572Z,5.07
2022-10-23T14:46:59.712Z,5.30
2022-10-23T14:50:02.326Z,5.77
2022-10-23T14:53:08.148Z,5.37
2022-10-23T14:56:11.135Z,5.43
2022-10-23T14:59:15.632Z,5.30
2022-10-23T15:02:21.633Z,5.50
2022-10-23T15:05:25.662Z,5.37
2022-10-23T15:08:29.580Z,5.30
2022-10-23T15:11:33.207Z,5.47
2022-10-23T15:14:35.793Z,5.18
2022-10-23T15:17:39.881Z,5.43
2022-10-23T15:20:51.305Z,5.80
2022-10-23T15:23:54.956Z,4.78
2022-10-23T15:26:57.495Z,5.35
2022-10-23T15:30:01.936Z,5.00
2022-10-23T15:33:05.654Z,5.70
2022-10-23T15:36:09.759Z,6.20
2022-10-23T15:39:15.704Z,5.80
2022-10-23T15:42:19.864Z,6.05
2022-10-23T15:45:25.497Z,6.28
2022-10-23T15:48:30.555Z,6.87
2022-10-23T15:51:33.152Z,7.20
2022-10-23T15:54:36.144Z,7.40
2022-10-23T15:57:42.094Z,7.43
2022-10-23T16:00:46.717Z,6.90
2022-10-23T16:03:50.714Z,7.47
2022-10-23T16:06:53.718Z,7.57
2022-10-23T16:09:56.386Z,7.70
2022-10-23T16:13:00.617Z,7.53
2022-10-23T16:16:04.856Z,8.10
2022-10-23T16:19:07.942Z,8.32
2022-10-23T16:22:11.902Z,8.00
2022-10-23T16:25:15.670Z,8.38
2022-10-23T16:28:19.592Z,8.40
2022-10-23T16:31:25.277Z,8.50
2022-10-23T16:34:28.312Z,8.18
2022-10-23T16:37:31.445Z,9.07
2022-10-23T16:40:36.136Z,9.48
2022-10-23T16:43:41.064Z,9.18
2022-10-23T16:46:45.865Z,9.75
2022-10-23T16:49:49.555Z,9.43
2022-10-23T16:52:55.509Z,8.77
2022-10-23T16:56:01.133Z,7.85
2022-10-23T16:59:04.881Z,9.02
2022-10-23T17:02:12.085Z,9.05
2022-10-23T17:05:18.433Z,11.63
2022-10-23T17:08:23.512Z,9.73
2022-10-23T17:11:33.981Z,9.88
2022-10-23T17:14:41.927Z,9.75
2022-10-23T17:17:46.481Z,13.57
2022-10-23T17:20:57.278Z,9.65
2022-10-23T17:27:12.595Z,8.55
2022-10-23T17:30:15.747Z,8.98
2022-10-23T17:33:19.447Z,9.77
2022-10-23T17:36:23.049Z,8.25
2022-10-23T17:39:29.582Z,8.40
2022-10-23T17:42:32.946Z,8.68
2022-10-23T17:45:36.305Z,8.80
2022-10-23T17:48:42.323Z,8.77
2022-10-23T17:51:45.870Z,8.57
2022-10-23T17:54:52.657Z,11.00
2022-10-23T17:57:58.024Z,8.52
2022-10-23T18:01:09.069Z,9.18
2022-10-23T18:04:13.775Z,9.50
2022-10-23T18:07:18.275Z,9.45
2022-10-23T18:10:21.364Z,10.27
2022-10-23T18:13:24.460Z,9.85
2022-10-23T18:16:30.772Z,10.50
2022-10-23T18:19:34.765Z,10.45
2022-10-23T18:22:38.574Z,9.27
2022-10-23T18:25:43.713Z,8.93
2022-10-23T18:28:49.785Z,9.63
2022-10-23T18:31:52.843Z,10.23
2022-10-23T18:34:56.975Z,10.30
2022-10-23T18:38:00.446Z,9.75
2022-10-23T18:41:04.059Z,10.33
2022-10-23T18:44:08.127Z,9.65
2022-10-23T18:47:11.354Z,9.27
2022-10-23T18:50:15.890Z,9.13
2022-10-23T18:53:21.331Z,9.40
2022-10-23T18:56:27.216Z,8.93
2022-10-23T18:59:31.687Z,9.20
2022-10-23T19:02:37.042Z,8.85
2022-10-23T19:05:44.720Z,9.15
2022-10-23T19:08:49.164Z,9.32
2022-10-23T19:11:52.363Z,8.77
2022-10-23T19:14:56.373Z,9.95
2022-10-23T19:18:00.420Z,9.80
2022-10-23T19:21:06.582Z,9.85
2022-10-23T19:24:16.028Z,9.43
2022-10-23T19:27:20.555Z,11.37
2022-10-23T19:30:25.025Z,9.63
2022-10-23T19:33:28.032Z,11.07
2022-10-23T19:36:33.352Z,9.93
2022-10-23T19:39:40.018Z,9.82
2022-10-23T19:42:44.532Z,9.10
2022-10-23T19:45:48.041Z,9.43
2022-10-23T19:48:51.173Z,9.80
2022-10-23T19:51:55.222Z,10.18
2022-10-23T19:55:02.485Z,10.05
2022-10-23T19:58:06.083Z,10.10
2022-10-23T20:01:15.465Z,9.85
2022-10-23T20:04:19.140Z,10.13
2022-10-23T20:07:22.873Z,9.80
2022-10-23T20:10:26.460Z,9.70
2022-10-23T20:13:29.472Z,10.07
2022-10-23T20:16:36.492Z,10.40
2022-10-23T20:19:39.195Z,10.00
2022-10-23T20:22:44.160Z,9.60
2022-10-23T20:25:47.363Z,9.80
2022-10-23T20:28:53.876Z,9.03
2022-10-23T20:31:57.892Z,10.10
2022-10-23T20:35:01.027Z,9.65
2022-10-23T20:38:04.394Z,10.35
2022-10-23T20:41:07.869Z,9.93
2022-10-23T20:44:13.725Z,8.80
2022-10-23T20:47:16.614Z,8.48
2022-10-23T20:50:19.617Z,9.00
2022-10-23T20:53:22.571Z,9.65
2022-10-23T20:56:33.489Z,10.02
2022-10-23T20:59:35.595Z,10.00
2022-10-23T21:02:37.792Z,8.63
2022-10-23T21:05:39.900Z,9.75
2022-10-23T21:08:42.748Z,9.75
2022-10-23T21:11:44.805Z,9.95
2022-10-23T21:14:46.796Z,9.67
2022-10-23T21:17:50.649Z,10.73
2022-10-23T21:20:54.198Z,8.85
2022-10-23T21:23:59.609Z,10.25
2022-10-23T21:27:01.788Z,10.05
2022-10-23T21:30:06.230Z,10.13
2022-10-23T21:33:08.515Z,9.98
2022-10-23T21:36:17.198Z,9.82
2022-10-23T21:39:19.549Z,10.00
2022-10-23T21:42:21.570Z,9.68
2022-10-23T21:45:24.127Z,10.20
2022-10-23T21:48:26.089Z,10.63
2022-10-23T21:51:31.554Z,11.27
2022-10-23T21:54:33.667Z,9.80
2022-10-23T21:57:35.714Z,10.80
2022-10-23T22:00:37.784Z,10.43
2022-10-23T22:03:39.793Z,10.55
2022-10-23T22:06:43.477Z,10.13
2022-10-23T22:09:45.441Z,11.02
2022-10-23T22:12:47.366Z,9.77
2022-10-23T22:15:49.308Z,9.73
2022-10-23T22:18:51.735Z,9.60
2022-10-23T22:21:54.225Z,9.82
2022-10-23T22:24:56.208Z,11.50
2022-10-23T22:27:58.443Z,10.13
2022-10-23T22:31:01.514Z,10.23
2022-10-23T22:34:18.633Z,11.70
2022-10-23T22:37:28.651Z,11.07
2022-10-23T22:40:30.695Z,10.77
2022-10-23T22:43:32.709Z,10.55
2022-10-23T22:46:34.767Z,10.40
2022-10-23T22:49:38.490Z,9.77
2022-10-23T22:52:40.445Z,10.40
2022-10-23T22:55:43.215Z,9.57
2022-10-23T22:58:46.109Z,10.15
2022-10-23T23:01:49.205Z,9.43
2022-10-23T23:04:51.149Z,9.63
2022-10-23T23:07:53.092Z,9.85
2022-10-23T23:10:56.781Z,9.77
2022-10-23T23:13:59.809Z,10.32
2022-10-23T23:17:02.012Z,9.50
2022-10-23T23:20:04.340Z,9.50
2022-10-23T23:23:06.462Z,10.20
2022-10-23T23:26:08.615Z,10.13
2022-10-23T23:29:10.543Z,9.85
2022-10-23T23:32:12.500Z,9.63
2022-10-23T23:35:14.592Z,10.23
2022-10-23T23:38:16.508Z,10.35
2022-10-23T23:41:20.269Z,9.52
2022-10-23T23:44:22.205Z,10.52
2022-10-23T23:47:24.426Z,10.70
2022-10-23T23:50:28.029Z,9.93
2022-10-23T23:53:30.136Z,10.20
2022-10-23T23:56:32.146Z,8.35
2022-10-23T23:59:41.937Z,9.90
